Brewster, New York
Current Conditions -  °F | °C
As of 10:53 AM on Friday 19 Dec 2014 (Local Time) from KDXR Reporting Station
Overcast Overcast  
Wind Chill: 25°   Ceiling: 3900
Heat Index: 34°   Visibility: 10mi
Dew Point: 18°   Wind: 12mph
Humidity: 52%   Direction: 310°NW
Pressure: 30.03"   Gusts: NA
Location:  41.4°N, 73.62°W
Report Text: KDXR 191553Z 31010KT 10SM OVC039 01/M08 A3003 RMK AO2 SLP171 T00111078
Loading
Personal Weather Stations






























Interactive Weather Map New forecast layout! Learn more

10-Day Weather Forecast

Advertisements
Track Severe Weather on mobile